Time;durP1;ratioP1;P1;durP2;ratioP2;P2;SDS_P1;SDS_P2;PMS_P1;PMS_P2;Temp;Humidity;BMP_temperature;BMP_pressure;BME280_temperature;BME280_humidity;BME280_pressure;Samples;Min_cycle;Max_cycle;Signal;HPM_P1;HPM_P2
2022/02/09 00:01:50;;;;;;;8.32;4.38;;;;;;;2.84;100.00;100851.25;5013421;28;20037;-72
2022/02/09 00:04:32;;;;;;;;;;;;;;;2.83;100.00;100850.44;5014107;28;20121;-72
2022/02/09 00:09:23;;;;;;;8.13;3.95;;;;;;;2.86;100.00;100853.00;5013101;28;20376;-72
2022/02/09 00:11:51;;;;;;;7.47;3.63;;;;;;;2.88;100.00;100855.50;5013344;28;20041;-71
2022/02/09 00:19:19;;;;;;;6.20;3.53;;;;;;;2.64;100.00;100818.28;5012694;28;20128;-71
2022/02/09 00:27:40;;;;;;;8.60;3.95;;;;;;;2.71;100.00;100832.66;5013071;28;20088;-73
2022/02/09 00:33:09;;;;;;;6.25;3.30;;;;;;;2.77;100.00;100867.06;5012971;28;20030;-72
2022/02/09 01:38:33;;;;;;;6.43;3.65;;;;;;;3.35;100.00;100837.88;5010510;28;20040;-70
2022/02/09 01:57:13;;;;;;;7.65;3.20;;;;;;;3.18;100.00;100835.94;5010800;28;20037;-70
2022/02/09 01:59:40;;;;;;;6.43;2.75;;;;;;;3.21;100.00;100846.03;5010964;28;20026;-70
2022/02/09 02:02:06;;;;;;;5.25;2.92;;;;;;;2.86;100.00;100814.47;5013218;28;20057;-70
2022/02/09 02:04:32;;;;;;;7.80;3.22;;;;;;;2.93;100.00;100811.25;5014856;28;20049;-70
2022/02/09 02:06:57;;;;;;;5.75;3.08;;;;;;;2.99;100.00;100814.69;5014388;28;20033;-69
2022/02/09 02:09:25;;;;;;;5.78;2.83;;;;;;;3.28;100.00;100841.13;4996963;28;20038;-69
2022/02/09 02:12:03;;;;;;;5.30;2.47;;;;;;;3.27;100.00;100831.88;5013709;28;20034;-69
2022/02/09 02:14:39;;;;;;;6.22;2.90;;;;;;;2.93;100.00;100807.06;5014743;28;20119;-70
2022/02/09 02:20:23;;;;;;;7.03;2.50;;;;;;;3.26;100.00;100827.69;4934720;29;20151;-69
2022/02/09 02:23:19;;;;;;;5.43;2.72;;;;;;;3.11;100.00;100819.91;4991814;28;20064;-70
2022/02/09 02:25:47;;;;;;;6.90;2.67;;;;;;;3.25;100.00;100837.69;5013903;28;20172;-70
2022/02/09 02:31:36;;;;;;;11.25;6.22;;;;;;;3.37;100.00;100822.81;5014288;28;20484;-68
2022/02/09 02:39:41;;;;;;;5.63;2.53;;;;;;;3.35;100.00;100820.28;4973337;28;20041;-70
2022/02/09 02:45:37;;;;;;;6.07;2.35;;;;;;;3.21;100.00;100791.59;5014394;28;20464;-70
2022/02/09 03:12:11;;;;;;;6.70;2.17;;;;;;;2.73;100.00;100783.34;4982414;28;20048;-70
2022/02/09 03:17:06;;;;;;;7.22;2.63;;;;;;;2.64;100.00;100794.06;5013475;28;20232;-70
2022/02/09 03:49:56;;;;;;;8.07;3.88;;;;;;;3.74;100.00;100819.16;5013043;28;20045;-71
2022/02/09 03:54:57;;;;;;;8.40;3.47;;;;;;;3.77;100.00;100816.66;4982038;28;20042;-71
2022/02/09 03:57:41;;;;;;;21.10;7.97;;;;;;;3.85;100.00;100800.84;4995346;28;20041;-71
2022/02/09 04:00:07;;;;;;;6.28;3.05;;;;;;;3.75;100.00;100823.34;5013109;28;20018;-71
2022/02/09 04:02:33;;;;;;;8.70;4.82;;;;;;;3.59;100.00;100831.50;5013132;28;20057;-71
2022/02/09 04:04:58;;;;;;;11.27;4.60;;;;;;;3.45;100.00;100794.47;4995148;28;20030;-70
2022/02/09 04:07:24;;;;;;;14.77;5.72;;;;;;;3.61;100.00;100787.97;5012680;28;20038;-71
2022/02/09 04:09:53;;;;;;;7.03;3.00;;;;;;;3.49;100.00;100808.78;5012796;28;20540;-71
2022/02/09 04:13:13;;;;;;;10.95;3.40;;;;;;;3.51;100.00;100822.19;4994666;28;20037;-71
2022/02/09 04:44:15;;;;;;;7.57;3.50;;;;;;;3.13;100.00;100817.44;5011952;28;20037;-71
2022/02/09 04:52:19;;;;;;;12.95;3.95;;;;;;;3.82;100.00;100787.41;5011642;28;20038;-70
2022/02/09 04:57:48;;;;;;;11.77;5.53;;;;;;;3.43;100.00;100793.59;4997311;28;20100;-70
2022/02/09 05:00:37;;;;;;;11.60;5.35;;;;;;;3.50;100.00;100781.97;5050702;28;20041;-69
2022/02/09 05:24:35;;;;;;;18.50;9.82;;;;;;;4.11;100.00;100814.59;5050907;28;20029;-69
2022/02/09 05:27:15;;;;;;;20.95;11.43;;;;;;;4.02;100.00;100816.97;5050752;28;20037;-69
2022/02/09 05:29:41;;;;;;;22.40;11.40;;;;;;;4.06;100.00;100827.94;5050977;28;20097;-71
2022/02/09 05:32:07;;;;;;;28.48;13.43;;;;;;;4.07;100.00;100843.06;5051098;28;20116;-69
2022/02/09 05:34:32;;;;;;;15.55;7.25;;;;;;;4.07;100.00;100837.16;5050432;28;20036;-71
2022/02/09 05:37:00;;;;;;;22.55;11.77;;;;;;;4.04;100.00;100854.75;5050358;28;20039;-70
2022/02/09 05:39:26;;;;;;;18.80;9.30;;;;;;;4.14;100.00;100874.19;5032564;28;20045;-70
2022/02/09 05:41:51;;;;;;;21.67;9.68;;;;;;;4.31;100.00;100863.47;5049752;28;20135;-70
2022/02/09 05:44:17;;;;;;;29.63;15.10;;;;;;;4.36;100.00;100864.34;5032648;28;20041;-71
2022/02/09 05:49:44;;;;;;;24.10;13.20;;;;;;;4.14;100.00;100880.03;5050983;28;20121;-72
2022/02/09 05:52:30;;;;;;;25.33;10.38;;;;;;;4.63;100.00;100847.88;5032987;28;20032;-70
2022/02/09 05:55:14;;;;;;;11.30;5.03;;;;;;;4.60;100.00;100848.66;5011268;28;20034;-71
2022/02/09 05:57:53;;;;;;;12.57;5.47;;;;;;;4.69;100.00;100873.97;4991342;28;20033;-70
2022/02/09 06:00:19;;;;;;;19.42;6.47;;;;;;;5.87;100.00;100874.91;5009149;28;20025;-71
2022/02/09 06:02:45;;;;;;;8.98;4.40;;;;;;;7.15;100.00;100856.75;5010305;28;20046;-71
2022/02/09 06:05:12;;;;;;;12.05;5.40;;;;;;;8.38;90.83;100893.59;5010956;28;20026;-70
2022/02/09 06:07:38;;;;;;;14.02;7.30;;;;;;;5.53;99.59;100898.19;5010526;28;20105;-70
2022/02/09 06:10:04;;;;;;;15.05;6.63;;;;;;;4.79;100.00;100875.75;4992623;28;20113;-71
2022/02/09 06:12:44;;;;;;;13.00;6.28;;;;;;;4.59;100.00;100871.31;4992197;28;20042;-70
2022/02/09 06:20:41;;;;;;;12.48;7.47;;;;;;;4.85;100.00;100900.13;5010045;28;20044;-70
2022/02/09 06:23:07;;;;;;;13.98;6.55;;;;;;;6.53;100.00;100895.41;5010123;28;20029;-71
2022/02/09 06:25:32;;;;;;;11.93;5.65;;;;;;;8.68;96.13;100898.53;4992781;28;20041;-71
2022/02/09 06:27:58;;;;;;;16.77;7.63;;;;;;;9.94;85.62;100878.91;5010638;28;20526;-71
2022/02/09 06:30:23;;;;;;;20.20;9.88;;;;;;;10.94;75.07;100854.69;5010538;28;20500;-71
2022/02/09 06:32:49;;;;;;;26.25;12.23;;;;;;;11.09;68.43;100872.28;5010603;28;20026;-71
2022/02/09 06:35:15;;;;;;;19.05;9.85;;;;;;;10.28;71.91;100879.38;4993034;28;20117;-70
2022/02/09 06:37:44;;;;;;;9.40;5.57;;;;;;;11.54;69.06;100894.44;4992727;28;20411;-70
2022/02/09 06:40:11;;;;;;;20.38;10.10;;;;;;;9.59;71.66;100911.38;4992799;28;20026;-69
2022/02/09 06:42:39;;;;;;;8.85;5.68;;;;;;;10.10;71.99;100880.41;5012694;28;20029;-71
2022/02/09 06:45:24;;;;;;;22.10;11.85;;;;;;;10.47;69.72;100901.16;5010928;28;20167;-71
2022/02/09 06:47:50;;;;;;;17.83;10.10;;;;;;;12.47;66.50;100863.78;5032249;28;20106;-71
2022/02/09 06:50:40;;;;;;;15.43;8.02;;;;;;;12.74;62.85;100880.16;5033579;28;20110;-71
2022/02/09 06:53:48;;;;;;;16.55;8.02;;;;;;;12.54;61.49;100862.75;5033039;28;20384;-71
2022/02/09 06:55:55;;;;;;;8.15;4.70;;;;;;;10.88;65.01;100887.84;5025307;28;20079;-70
2022/02/09 06:58:43;;;;;;;15.55;6.88;;;;;;;11.59;63.44;100902.81;5033728;28;20029;-70
2022/02/09 07:01:08;;;;;;;16.63;9.52;;;;;;;12.58;60.98;100877.13;5033176;28;20029;-71
2022/02/09 07:03:34;;;;;;;17.77;11.43;;;;;;;12.12;60.86;100884.88;5015408;28;20053;-70
2022/02/09 07:06:00;;;;;;;7.68;4.15;;;;;;;10.41;67.45;100866.50;5033351;28;20041;-71
2022/02/09 07:08:27;;;;;;;14.00;7.88;;;;;;;11.86;64.73;100853.97;5033496;28;20036;-70
2022/02/09 07:10:52;;;;;;;13.23;9.80;;;;;;;10.46;66.31;100877.41;5033268;28;20428;-71
2022/02/09 07:13:18;;;;;;;13.90;9.15;;;;;;;8.97;75.05;100913.59;5015555;28;20029;-71
2022/02/09 07:15:49;;;;;;;7.90;4.75;;;;;;;8.26;92.79;100912.22;5015286;28;20036;-70
2022/02/09 07:18:15;;;;;;;9.40;3.83;;;;;;;8.11;94.65;100883.56;5015386;28;20061;-70
2022/02/09 07:20:52;;;;;;;11.45;6.32;;;;;;;8.63;92.87;100928.13;5015531;28;20468;-69
2022/02/09 07:23:34;;;;;;;11.07;5.85;;;;;;;7.86;92.79;100895.47;5015113;28;20034;-70
2022/02/09 07:26:07;;;;;;;;;;;;;;;9.01;85.74;100930.47;5015669;28;20087;-70
2022/02/09 07:28:33;;;;;;;9.88;5.50;;;;;;;8.88;86.40;100903.47;5015187;28;19913;-71
2022/02/09 07:31:00;;;;;;;10.65;7.35;;;;;;;8.68;87.60;100899.38;5033140;28;20025;-70
2022/02/09 07:33:26;;;;;;;8.90;5.93;;;;;;;8.95;88.82;100907.69;5032783;28;20116;-71
2022/02/09 07:35:52;;;;;;;7.95;4.70;;;;;;;9.08;86.98;100911.81;5032668;28;20041;-70
2022/02/09 07:38:17;;;;;;;8.68;4.00;;;;;;;8.72;89.99;100870.63;5032992;28;20079;-71
2022/02/09 07:40:43;;;;;;;9.45;6.70;;;;;;;9.15;87.75;100885.56;5014697;28;20427;-70
2022/02/09 07:43:18;;;;;;;12.73;7.47;;;;;;;9.36;86.94;100920.91;5014984;28;20389;-70
2022/02/09 07:53:46;;;;;;;32.35;22.77;;;;;;;8.75;94.48;100903.53;5032895;28;20518;-71
2022/02/09 07:56:11;;;;;;;19.10;14.05;;;;;;;8.33;94.83;100898.72;5032895;28;20480;-71
2022/02/09 07:58:37;;;;;;;11.20;6.95;;;;;;;9.13;96.81;100907.56;5014396;28;20083;-70
2022/02/09 08:01:02;;;;;;;14.55;8.88;;;;;;;8.57;100.00;100901.13;5014834;28;20479;-71
2022/02/09 08:03:28;;;;;;;18.20;9.25;;;;;;;8.56;100.00;100917.19;5032072;28;20529;-70
2022/02/09 08:05:53;;;;;;;20.50;13.00;;;;;;;8.64;100.00;100882.50;5031912;28;20060;-70
2022/02/09 08:08:19;;;;;;;24.27;14.60;;;;;;;8.49;100.00;100890.19;5032413;28;20026;-70
2022/02/09 08:29:19;;;;;;;47.75;29.42;;;;;;;9.15;99.48;100888.09;5031767;28;20040;-70
2022/02/09 08:34:14;;;;;;;17.10;10.18;;;;;;;9.42;96.80;100875.19;5031854;28;20026;-70
2022/02/09 08:36:42;;;;;;;31.92;17.40;;;;;;;9.74;95.22;100898.56;5014114;28;20060;-70
2022/02/09 08:39:08;;;;;;;53.67;30.77;;;;;;;9.33;92.84;100906.53;5013614;28;20033;-70
2022/02/09 08:41:34;;;;;;;10.52;5.93;;;;;;;9.51;91.97;100921.63;5031780;28;20479;-71
2022/02/09 08:44:00;;;;;;;28.58;16.27;;;;;;;10.53;88.09;100941.75;5031584;28;20094;-71
2022/02/09 08:46:26;;;;;;;7.63;5.03;;;;;;;10.10;84.74;100920.25;5013633;28;20029;-70
2022/02/09 08:48:51;;;;;;;11.07;6.10;;;;;;;9.98;84.79;100889.84;5013796;28;20222;-70
2022/02/09 08:51:17;;;;;;;10.25;6.55;;;;;;;10.42;83.42;100941.88;5031267;28;20029;-70
2022/02/09 08:53:42;;;;;;;11.60;7.03;;;;;;;10.33;82.29;100930.97;5031230;28;20030;-69
2022/02/09 08:56:07;;;;;;;25.20;14.65;;;;;;;10.51;81.76;100904.50;5013880;28;20472;-70
2022/02/09 08:58:34;;;;;;;30.52;15.27;;;;;;;10.41;82.69;100932.59;5031334;28;20041;-71
2022/02/09 09:01:10;;;;;;;15.90;8.55;;;;;;;10.53;82.76;100905.31;5013446;28;20419;-70
2022/02/09 09:03:47;;;;;;;48.03;25.52;;;;;;;10.52;81.85;100918.91;5031188;28;20049;-71
2022/02/09 09:06:18;;;;;;;36.45;19.13;;;;;;;10.53;79.45;100944.28;5013379;28;20030;-69
2022/02/09 10:34:04;;;;;;;23.13;7.95;;;;;;;10.22;80.46;100899.78;5033926;28;20041;-68
2022/02/09 10:36:42;;;;;;;9.15;4.45;;;;;;;10.55;79.97;100881.56;5014399;28;20388;-70
2022/02/09 10:39:11;;;;;;;5.53;3.10;;;;;;;11.07;79.42;100923.19;4995049;28;20028;-70
2022/02/09 10:42:04;;;;;;;5.47;3.03;;;;;;;10.45;80.45;100924.06;4996600;28;20025;-70
2022/02/09 10:44:51;;;;;;;8.32;3.88;;;;;;;10.52;81.28;100916.34;5013967;28;21019;-71
2022/02/09 10:47:27;;;;;;;12.27;4.35;;;;;;;10.36;81.21;100949.56;5014068;28;20049;-70
2022/02/09 10:50:25;;;;;;;19.33;7.20;;;;;;;10.36;82.22;100943.63;4996479;28;20087;-70
2022/02/09 10:52:52;;;;;;;23.52;6.82;;;;;;;10.87;77.47;100920.13;5014097;28;20804;-70
2022/02/09 10:55:38;;;;;;;4.60;2.80;;;;;;;11.14;73.53;100932.44;5014087;28;20030;-71
2022/02/09 10:58:14;;;;;;;5.65;2.92;;;;;;;12.34;71.70;100941.38;5013927;28;20033;-71
2022/02/09 11:00:44;;;;;;;7.50;3.30;;;;;;;11.73;69.42;100908.56;5013854;28;20037;-70
2022/02/09 11:03:17;;;;;;;13.95;4.95;;;;;;;11.86;67.72;100927.88;5013666;28;20484;-71
2022/02/09 11:05:46;;;;;;;4.38;2.60;;;;;;;12.04;67.87;100919.88;5013744;28;20105;-70
2022/02/09 11:08:12;;;;;;;7.72;3.00;;;;;;;11.65;67.53;100918.00;5013724;28;20507;-70
2022/02/09 11:10:38;;;;;;;4.50;2.85;;;;;;;12.48;68.62;100908.78;5013574;28;20068;-70
2022/02/09 11:13:09;;;;;;;5.20;2.72;;;;;;;11.99;66.97;100913.19;5013386;28;20026;-71
2022/02/09 11:15:37;;;;;;;4.32;2.55;;;;;;;12.65;66.62;100905.91;5013149;28;20121;-70
2022/02/09 11:18:04;;;;;;;8.13;3.88;;;;;;;13.00;65.20;100875.31;5013294;28;20117;-71
2022/02/09 11:20:31;;;;;;;10.52;4.18;;;;;;;13.70;64.82;100900.00;4995821;28;20530;-70
2022/02/09 11:22:58;;;;;;;5.00;2.85;;;;;;;12.95;62.87;100900.13;4995822;28;20389;-71
2022/02/09 11:25:31;;;;;;;11.77;4.55;;;;;;;13.01;63.73;100900.00;4995851;28;20026;-71
2022/02/09 11:28:35;;;;;;;9.68;4.95;;;;;;;12.29;65.73;100901.56;5013042;28;20041;-70
2022/02/09 11:31:20;;;;;;;9.38;5.32;;;;;;;12.95;64.62;100907.78;5018003;28;20056;-70
2022/02/09 11:33:55;;;;;;;9.07;4.88;;;;;;;12.16;66.27;100906.88;5013784;28;20033;-70
2022/02/09 11:36:45;;;;;;;12.05;5.57;;;;;;;12.01;68.14;100858.78;5014729;28;20483;-70
2022/02/09 11:41:39;;;;;;;10.73;4.65;;;;;;;11.55;68.12;100893.56;5032720;28;20515;-71
2022/02/09 11:50:19;;;;;;;22.17;10.65;;;;;;;11.27;70.34;100884.69;5032609;28;20116;-70
2022/02/09 12:00:02;;;;;;;4.13;2.90;;;;;;;11.52;69.42;100875.81;5032513;28;20029;-71
2022/02/09 12:11:04;;;;;;;7.70;4.20;;;;;;;10.79;68.35;100873.59;5032401;28;20046;-70
2022/02/09 12:14:22;;;;;;;4.40;2.15;;;;;;;11.43;67.75;100891.22;5031897;28;20029;-70
2022/02/09 12:16:45;;;;;;;4.10;2.53;;;;;;;11.29;66.20;100893.16;5023702;28;20040;-71
2022/02/09 12:19:24;;;;;;;5.18;3.22;;;;;;;10.97;68.50;100868.19;5031908;28;20029;-71
2022/02/09 12:24:37;;;;;;;8.60;4.38;;;;;;;10.79;70.72;100898.19;5032081;28;20175;-70
2022/02/09 12:27:08;;;;;;;5.63;2.65;;;;;;;11.00;71.11;100903.78;5031436;28;20033;-71
2022/02/09 12:29:39;;;;;;;7.07;3.67;;;;;;;11.00;69.75;100868.19;5031872;28;20129;-71
2022/02/09 12:32:16;;;;;;;5.95;3.40;;;;;;;11.20;68.03;100903.50;5013859;28;20040;-71
2022/02/09 12:35:04;;;;;;;5.75;2.83;;;;;;;11.28;66.81;100911.84;5031343;28;20480;-70
2022/02/09 12:37:32;;;;;;;6.68;3.80;;;;;;;11.71;64.22;100882.28;5013303;28;20017;-70
2022/02/09 12:40:02;;;;;;;5.13;2.67;;;;;;;12.33;61.20;100901.47;5031072;28;20035;-70
2022/02/09 12:42:36;;;;;;;5.60;2.95;;;;;;;11.59;60.97;100886.72;5031566;28;20025;-70
2022/02/09 12:45:12;;;;;;;3.92;2.60;;;;;;;11.75;62.24;100924.66;5030534;28;20084;-70
2022/02/09 12:47:43;;;;;;;4.38;2.70;;;;;;;11.58;59.78;100913.91;5031436;28;20112;-70
2022/02/09 12:50:17;;;;;;;5.55;3.15;;;;;;;12.22;58.21;100922.94;5031724;28;20033;-71
2022/02/09 12:52:44;;;;;;;4.97;2.55;;;;;;;13.03;56.50;100924.63;5013610;28;20095;-70
2022/02/09 12:55:13;;;;;;;4.72;2.10;;;;;;;13.19;54.78;100925.13;5013876;28;20057;-71
2022/02/09 12:57:42;;;;;;;4.70;2.05;;;;;;;12.59;53.94;100888.16;5013125;28;20029;-70
2022/02/09 13:00:21;;;;;;;5.15;2.90;;;;;;;13.43;53.39;100923.69;5031367;28;20041;-70
2022/02/09 13:02:47;;;;;;;5.18;1.70;;;;;;;12.55;53.60;100879.75;5013242;28;20056;-70
2022/02/09 13:05:13;;;;;;;5.90;2.70;;;;;;;13.34;53.08;100924.75;5031307;28;20041;-70
2022/02/09 13:07:39;;;;;;;6.05;3.13;;;;;;;13.42;52.88;100894.75;5013538;28;20029;-70
2022/02/09 13:10:06;;;;;;;3.60;2.10;;;;;;;13.35;52.78;100921.31;5031006;28;20384;-70
2022/02/09 13:12:33;;;;;;;4.32;2.60;;;;;;;13.50;52.00;100928.63;5030754;28;20645;-70
2022/02/09 13:15:16;;;;;;;3.38;1.92;;;;;;;13.93;51.02;100892.56;5013806;28;20041;-70
2022/02/09 13:17:59;;;;;;;5.90;3.50;;;;;;;13.17;53.09;100900.50;5030870;28;20025;-70
2022/02/09 13:20:52;;;;;;;5.90;3.97;;;;;;;13.56;53.74;100942.94;5013232;28;20030;-71
2022/02/09 14:18:47;;;;;;;10.25;5.55;;;;;;;15.35;54.16;100990.81;5034173;28;20033;-70
2022/02/09 14:35:01;;;;;;;5.22;4.38;;;;;;;15.10;53.94;100994.97;5033749;28;20064;-71
2022/02/09 14:48:27;;;;;;;8.75;6.10;;;;;;;15.70;54.60;101015.34;5033545;28;20130;-70
2022/02/09 14:54:01;;;;;;;10.43;6.10;;;;;;;15.53;54.33;101015.88;5033534;28;20419;-70
2022/02/09 14:56:24;;;;;;;13.27;8.38;;;;;;;15.53;56.05;101014.16;5031608;28;20037;-70
2022/02/09 14:58:57;;;;;;;11.48;8.18;;;;;;;15.31;55.33;100990.03;5033418;28;20033;-71
2022/02/09 15:01:36;;;;;;;13.57;8.70;;;;;;;14.39;57.65;101014.97;5033806;28;20116;-71
2022/02/09 15:07:26;;;;;;;25.58;9.88;;;;;;;15.48;58.67;101017.75;5033456;28;20033;-70
2022/02/09 15:09:36;;;;;;;15.68;9.02;;;;;;;12.90;62.26;100997.22;5018162;28;20472;-71
2022/02/09 15:14:50;;;;;;;15.68;9.73;;;;;;;12.80;66.62;100987.22;5033333;28;20037;-70
2022/02/09 15:17:39;;;;;;;25.63;14.80;;;;;;;12.46;69.24;101027.03;5032840;28;20025;-69
2022/02/09 15:20:36;;;;;;;36.00;20.02;;;;;;;11.30;82.66;101014.50;5031052;28;20067;-71
2022/02/09 15:22:56;;;;;;;22.98;12.82;;;;;;;11.50;87.00;101032.03;5015795;28;20033;-72
2022/02/09 15:25:23;;;;;;;14.07;10.10;;;;;;;11.39;87.99;101016.88;5013398;28;20471;-70
2022/02/09 15:27:57;;;;;;;10.57;7.05;;;;;;;10.59;92.40;100992.53;5031625;28;20555;-70
2022/02/09 15:30:22;;;;;;;11.23;8.40;;;;;;;10.51;96.66;101023.97;5033117;28;20029;-71
2022/02/09 15:32:52;;;;;;;11.30;8.52;;;;;;;10.45;98.52;100994.38;5019824;28;20125;-71
2022/02/09 15:35:24;;;;;;;13.98;8.70;;;;;;;10.37;100.00;100974.16;5013409;28;20112;-70
2022/02/09 15:37:59;;;;;;;15.90;10.48;;;;;;;10.43;100.00;101029.16;5013115;28;20026;-72
2022/02/09 15:40:37;;;;;;;16.98;12.77;;;;;;;10.39;100.00;101010.56;5019810;28;20030;-69
2022/02/09 16:09:29;;;;;;;53.55;33.70;;;;;;;9.06;100.00;101025.09;5032616;28;21391;-72
2022/02/09 16:46:41;;;;;;;42.42;27.70;;;;;;;7.84;100.00;101125.78;5009660;28;20558;-71
2022/02/09 16:49:11;;;;;;;37.35;22.75;;;;;;;7.44;100.00;101090.28;5008871;28;20026;-70
2022/02/09 16:51:57;;;;;;;27.58;17.83;;;;;;;7.79;100.00;101122.41;5012283;28;20499;-75
2022/02/09 17:18:52;;;;;;;45.78;29.98;;;;;;;7.71;100.00;101133.34;5031924;28;20033;-75
2022/02/09 17:21:19;;;;;;;;;;;;;;;6.67;100.00;101140.50;5032146;28;20477;-76
2022/02/09 17:23:45;;;;;;;36.70;25.30;;;;;;;6.93;100.00;101078.31;5031753;28;20000;-76
2022/02/09 17:26:12;;;;;;;36.35;24.92;;;;;;;7.29;100.00;101135.78;5031961;28;20120;-77
2022/02/09 17:28:40;;;;;;;30.50;21.02;;;;;;;7.11;100.00;101111.22;5013860;28;20037;-73
2022/02/09 17:36:43;;;;;;;29.40;20.95;;;;;;;7.11;100.00;101151.69;5031359;28;20038;-78
2022/02/09 17:58:17;;;;;;;70.28;47.08;;;;;;;6.62;100.00;101145.50;5031694;28;20550;-74
2022/02/09 18:00:42;;;;;;;;;;;;;;;6.93;100.00;101166.78;5032227;28;20471;-75
2022/02/09 18:03:08;;;;;;;79.22;52.17;;;;;;;7.01;100.00;101144.91;5031746;28;19988;-72
2022/02/09 18:08:10;;;;;;;89.05;57.13;;;;;;;7.55;100.00;101170.44;5030233;28;20029;-71
2022/02/09 18:29:12;;;;;;;71.72;57.17;;;;;;;6.73;100.00;101191.94;5031182;28;20041;-73
2022/02/09 18:45:21;;;;;;;50.15;41.58;;;;;;;6.47;100.00;101208.56;5035199;28;20047;-73
2022/02/09 19:03:55;;;;;;;101.07;74.55;;;;;;;5.57;100.00;101187.38;5032629;28;20050;-71
2022/02/09 19:06:44;;;;;;;60.75;40.42;;;;;;;5.44;100.00;101223.38;5033868;28;20032;-73
2022/02/09 19:14:29;;;;;;;43.83;31.67;;;;;;;5.07;100.00;101174.19;5030179;28;20068;-70
2022/02/09 19:17:18;;;;;;;45.97;31.83;;;;;;;5.32;100.00;101193.81;5029691;28;20064;-70
2022/02/09 19:40:27;;;;;;;48.03;32.42;;;;;;;4.93;100.00;101218.47;5029164;28;20095;-67
2022/02/09 19:47:39;;;;;;;59.72;39.17;;;;;;;5.35;100.00;101263.63;5029054;28;20044;-67
2022/02/09 19:52:53;;;;;;;;;;;;;;;5.23;100.00;101261.75;5029166;28;20041;-69
2022/02/09 19:55:23;;;;;;;43.13;29.58;;;;;;;5.22;100.00;101255.03;5028270;28;19934;-70
2022/02/09 19:57:51;;;;;;;59.00;43.83;;;;;;;5.57;100.00;101265.56;5029579;28;20105;-70
2022/02/09 20:00:20;;;;;;;69.53;49.60;;;;;;;4.76;100.00;101233.31;5011012;28;20417;-70
2022/02/09 20:02:47;;;;;;;69.38;49.55;;;;;;;5.33;100.00;101258.53;5028916;28;20050;-71
2022/02/09 20:05:19;;;;;;;66.63;49.50;;;;;;;5.16;100.00;101232.25;5011473;28;20029;-72
2022/02/09 20:07:45;;;;;;;78.80;56.65;;;;;;;4.91;100.00;101226.00;5010752;28;20121;-70
2022/02/09 20:10:12;;;;;;;83.80;60.55;;;;;;;5.24;100.00;101258.41;5028511;28;20030;-70
2022/02/09 20:12:38;;;;;;;77.75;56.50;;;;;;;5.30;100.00;101258.50;5028528;28;20079;-69
2022/02/09 20:15:04;;;;;;;86.03;59.80;;;;;;;4.95;100.00;101240.34;5028703;28;20030;-70
2022/02/09 20:17:30;;;;;;;164.45;97.25;;;;;;;4.93;100.00;101236.13;5028174;28;20447;-70
2022/02/09 20:19:57;;;;;;;297.08;147.52;;;;;;;4.92;100.00;101244.47;5028711;28;20049;-72
2022/02/09 20:22:23;;;;;;;266.73;141.75;;;;;;;4.95;100.00;101247.06;5028681;28;20492;-72
2022/02/09 20:24:49;;;;;;;240.50;135.20;;;;;;;5.34;100.00;101257.72;5011492;28;20040;-73
2022/02/09 20:27:19;;;;;;;175.10;118.32;;;;;;;5.33;100.00;101253.47;5029209;28;20039;-74
2022/02/09 20:29:45;;;;;;;139.10;101.40;;;;;;;5.46;100.00;101249.47;5011050;28;20042;-71
2022/02/09 20:32:21;;;;;;;94.63;70.10;;;;;;;5.79;100.00;101278.47;5010503;28;20038;-70
2022/02/09 20:34:56;;;;;;;62.55;44.78;;;;;;;5.85;100.00;101235.69;5028736;28;20033;-71
2022/02/09 20:37:23;;;;;;;37.05;25.20;;;;;;;6.56;100.00;101238.06;5010561;28;20034;-70
2022/02/09 20:40:12;;;;;;;21.75;15.90;;;;;;;7.07;100.00;101242.69;5027928;28;20033;-70
2022/02/09 20:42:44;;;;;;;14.95;11.50;;;;;;;7.15;100.00;101238.53;5027863;28;20509;-72
2022/02/09 20:45:21;;;;;;;16.90;11.57;;;;;;;7.26;100.00;101219.19;5028084;28;20033;-71
2022/02/09 20:47:48;;;;;;;14.77;11.75;;;;;;;7.28;100.00;101237.75;5028335;28;20071;-72
2022/02/09 20:50:13;;;;;;;16.23;11.57;;;;;;;7.37;100.00;101269.00;5029012;28;20057;-72
2022/02/09 20:52:39;;;;;;;22.08;14.35;;;;;;;7.20;100.00;101246.97;5010917;28;20068;-73
2022/02/09 20:55:05;;;;;;;19.00;13.05;;;;;;;7.38;100.00;101264.81;5027717;28;20033;-68
2022/02/09 20:57:32;;;;;;;16.27;12.45;;;;;;;7.42;100.00;101282.53;5010901;28;20466;-73
2022/02/09 21:00:06;;;;;;;16.27;11.95;;;;;;;7.23;100.00;101247.03;5028401;28;20037;-71
2022/02/09 21:02:47;;;;;;;17.73;14.18;;;;;;;7.20;100.00;101236.88;5010251;28;20089;-71
2022/02/09 21:05:38;;;;;;;17.25;13.48;;;;;;;7.28;100.00;101271.50;5027654;28;20040;-67
2022/02/09 21:13:02;;;;;;;17.20;12.52;;;;;;;7.38;100.00;101285.91;5028391;28;20140;-73
2022/02/09 21:57:39;;;;;;;45.20;31.10;;;;;;;5.09;100.00;101299.34;5011811;28;20034;-73
2022/02/09 22:45:31;;;;;;;20.73;15.00;;;;;;;6.10;100.00;101282.25;5015198;28;20040;-74
2022/02/09 22:48:25;;;;;;;32.75;22.25;;;;;;;4.55;100.00;101306.00;5012025;28;20558;-74
2022/02/09 22:56:03;;;;;;;49.55;31.70;;;;;;;4.54;100.00;101311.84;5014567;28;20121;-74
2022/02/09 22:58:28;;;;;;;46.90;32.95;;;;;;;3.97;100.00;101286.44;5014866;28;20038;-74
2022/02/09 23:01:03;;;;;;;41.67;28.40;;;;;;;4.52;100.00;101307.59;5014889;28;20037;-74
2022/02/09 23:21:48;;;;;;;25.77;18.75;;;;;;;4.28;100.00;101287.88;5014795;28;20416;-76
2022/02/09 23:25:24;;;;;;;21.88;16.55;;;;;;;4.54;100.00;101283.28;5014488;28;20084;-75
